createdAt,value
2023-04-24T00:02:39.828Z,100591.59
2023-04-24T00:05:27.294Z,100590.03
2023-04-24T00:08:07.291Z,100580.38
2023-04-24T00:10:54.283Z,100576.81
2023-04-24T00:13:34.414Z,100585.59
2023-04-24T00:16:21.318Z,100583.03
2023-04-24T00:19:01.912Z,100572.53
2023-04-24T00:21:49.225Z,100571.72
2023-04-24T00:24:29.499Z,100569.78
2023-04-24T00:27:16.425Z,100570.34
2023-04-24T00:29:56.586Z,100569.91
2023-04-24T00:32:43.245Z,100569.03
2023-04-24T00:35:24.488Z,100572.03
2023-04-24T00:38:11.215Z,100565.06
2023-04-24T00:41:05.242Z,100565.25
2023-04-24T00:43:52.206Z,100562.66
2023-04-24T00:46:32.367Z,100573.66
2023-04-24T00:49:20.169Z,100569.53
2023-04-24T00:52:00.594Z,100572.78
2023-04-24T00:54:47.195Z,100579.66
2023-04-24T00:57:27.306Z,100581.94
2023-04-24T01:00:19.195Z,100576.00
2023-04-24T01:03:00.441Z,100573.75
2023-04-24T01:05:47.198Z,100568.66
2023-04-24T01:08:35.150Z,100574.09
2023-04-24T01:11:22.240Z,100569.16
2023-04-24T01:14:09.211Z,100572.28
2023-04-24T01:16:56.193Z,100578.94
2023-04-24T01:19:36.607Z,100576.47
2023-04-24T01:22:24.129Z,100570.91
2023-04-24T01:25:13.148Z,100568.75
2023-04-24T01:27:53.791Z,100566.25
2023-04-24T01:30:41.116Z,100569.41
2023-04-24T01:33:23.038Z,100567.88
2023-04-24T01:36:10.132Z,100558.09
2023-04-24T01:38:57.328Z,100559.00
2023-04-24T01:41:44.154Z,100558.22
2023-04-24T01:44:27.279Z,100556.06
2023-04-24T01:47:14.148Z,100561.38
2023-04-24T01:49:56.310Z,100563.72
2023-04-24T01:52:44.073Z,100565.00
2023-04-24T01:55:31.145Z,100555.81
2023-04-24T01:58:19.135Z,100555.88
2023-04-24T02:01:06.168Z,100553.81
2023-04-24T02:03:47.776Z,100560.16
2023-04-24T02:06:35.128Z,100557.50
2023-04-24T02:09:22.097Z,100559.94
2023-04-24T02:12:02.298Z,100544.25
2023-04-24T02:14:50.082Z,100546.00
2023-04-24T02:17:37.100Z,100554.97
2023-04-24T02:20:25.053Z,100546.28
2023-04-24T02:23:13.026Z,100551.41
2023-04-24T02:26:01.044Z,100544.41
2023-04-24T02:28:41.220Z,100544.28
2023-04-24T02:31:28.103Z,100545.09
2023-04-24T02:34:15.116Z,100540.59
2023-04-24T02:37:02.086Z,100549.13
2023-04-24T02:39:50.061Z,100543.91
2023-04-24T02:42:37.032Z,100548.50
2023-04-24T02:45:17.123Z,100546.75
2023-04-24T02:48:04.112Z,100547.47
2023-04-24T02:50:45.274Z,100550.53
2023-04-24T02:53:32.091Z,100548.59
2023-04-24T02:56:15.248Z,100546.84
2023-04-24T02:59:02.148Z,100545.25
2023-04-24T03:01:42.143Z,100556.16
2023-04-24T03:04:30.112Z,100547.63
2023-04-24T03:07:16.958Z,100550.25
2023-04-24T03:10:05.993Z,100546.81
2023-04-24T03:12:46.214Z,100546.88
2023-04-24T03:15:32.963Z,100543.09
2023-04-24T03:18:20.008Z,100541.78
2023-04-24T03:21:00.526Z,100552.59
2023-04-24T03:23:47.972Z,100545.84
2023-04-24T03:26:28.476Z,100549.19
2023-04-24T03:29:30.395Z,100549.28
2023-04-24T03:32:17.097Z,100551.31
2023-04-24T03:34:57.985Z,100554.63
2023-04-24T03:37:38.347Z,100554.66
2023-04-24T03:40:43.952Z,100559.81
2023-04-24T03:43:50.966Z,100551.38
2023-04-24T03:46:32.064Z,100554.16
2023-04-24T03:49:18.966Z,100546.75
2023-04-24T03:51:59.061Z,100558.06
2023-04-24T03:54:45.960Z,100564.38
2023-04-24T03:57:26.105Z,100560.53
2023-04-24T04:00:23.953Z,100559.88
2023-04-24T04:03:24.388Z,100567.72
2023-04-24T04:06:11.909Z,100574.19
2023-04-24T04:08:58.871Z,100570.56
2023-04-24T04:11:39.419Z,100566.84
2023-04-24T04:14:25.958Z,100572.47
2023-04-24T04:17:06.243Z,100571.56
2023-04-24T04:19:52.941Z,100569.16
2023-04-24T04:22:33.317Z,100565.69
2023-04-24T04:25:22.894Z,100569.19
2023-04-24T04:28:03.329Z,100573.69
2023-04-24T04:30:51.977Z,100572.19
2023-04-24T04:33:32.690Z,100587.34
2023-04-24T04:36:20.847Z,100585.25
2023-04-24T04:39:08.883Z,100581.09
2023-04-24T04:42:10.880Z,100580.53
2023-04-24T04:44:57.865Z,100570.56
2023-04-24T04:47:55.856Z,100577.34
2023-04-24T04:50:38.253Z,100577.53
2023-04-24T04:53:24.899Z,100575.34
2023-04-24T04:56:05.539Z,100578.41
2023-04-24T04:58:56.854Z,100580.84
2023-04-24T05:01:37.805Z,100572.94
2023-04-24T05:04:26.961Z,100570.72
2023-04-24T05:07:07.426Z,100574.41
2023-04-24T05:09:59.836Z,100574.41
2023-04-24T05:12:53.842Z,100577.66
2023-04-24T05:15:40.850Z,100575.06
2023-04-24T05:18:21.981Z,100576.25
2023-04-24T05:21:08.844Z,100568.28
2023-04-24T05:23:51.983Z,100574.53
2023-04-24T05:26:56.809Z,100574.75
2023-04-24T05:29:48.816Z,100575.72
2023-04-24T05:32:35.807Z,100572.56
2023-04-24T05:35:22.860Z,100569.78
2023-04-24T05:38:10.819Z,100576.31
2023-04-24T05:41:04.843Z,100565.00
2023-04-24T05:43:45.190Z,100570.31
2023-04-24T05:46:31.948Z,100563.00
2023-04-24T05:49:12.558Z,100567.13
2023-04-24T05:52:00.799Z,100573.25
2023-04-24T05:54:41.255Z,100579.44
2023-04-24T05:57:32.855Z,100582.47
2023-04-24T06:00:14.554Z,100573.50
2023-04-24T06:03:12.996Z,100577.84
2023-04-24T06:05:55.126Z,100580.28
2023-04-24T06:08:42.763Z,100571.59
2023-04-24T06:11:23.681Z,100573.00
2023-04-24T06:14:11.765Z,100577.81
2023-04-24T06:17:10.341Z,100574.53
2023-04-24T06:19:58.875Z,100582.53
2023-04-24T06:22:41.095Z,100585.53
2023-04-24T06:25:27.880Z,100588.94
2023-04-24T06:28:08.315Z,100586.78
2023-04-24T06:30:54.715Z,100586.53
2023-04-24T06:33:35.122Z,100590.63
2023-04-24T06:36:23.810Z,100594.94
2023-04-24T06:39:13.114Z,100583.31
2023-04-24T06:42:06.862Z,100580.34
2023-04-24T06:44:56.754Z,100596.22
2023-04-24T06:47:39.020Z,100580.06
2023-04-24T06:50:25.718Z,100587.31
2023-04-24T06:53:12.710Z,100587.97
2023-04-24T06:55:53.576Z,100586.09
2023-04-24T06:58:40.785Z,100590.09
2023-04-24T07:01:27.812Z,100590.38
2023-04-24T07:04:15.012Z,100593.41
2023-04-24T07:07:05.944Z,100597.47
2023-04-24T07:09:48.684Z,100598.97
2023-04-24T07:12:35.696Z,100592.19
2023-04-24T07:15:22.702Z,100603.56
2023-04-24T07:18:09.766Z,100609.22
2023-04-24T07:20:53.247Z,100597.19
2023-04-24T07:23:39.733Z,100596.66
2023-04-24T07:39:42.724Z,100611.38
2023-04-24T07:42:23.083Z,100603.81
2023-04-24T07:45:10.313Z,100605.47
2023-04-24T07:47:51.990Z,100625.94
2023-04-24T07:50:38.393Z,100612.28
2023-04-24T07:53:18.911Z,100614.00
2023-04-24T07:56:05.305Z,100611.66
2023-04-24T07:58:52.434Z,100622.41
2023-04-24T08:01:32.668Z,100616.19
2023-04-24T08:04:19.581Z,100612.72
2023-04-24T08:06:59.437Z,100616.19
2023-04-24T08:09:46.287Z,100615.63
2023-04-24T08:12:26.433Z,100613.31
2023-04-24T08:15:14.336Z,100633.88
2023-04-24T08:17:54.413Z,100623.56
2023-04-24T08:20:41.316Z,100621.94
2023-04-24T08:23:21.506Z,100621.56
2023-04-24T08:26:08.281Z,100623.44
2023-04-24T08:28:48.436Z,100617.97
2023-04-24T08:31:35.344Z,100622.25
2023-04-24T08:34:22.389Z,100619.34
2023-04-24T08:37:10.255Z,100616.91
2023-04-24T08:39:58.472Z,100607.84
2023-04-24T08:42:41.286Z,100625.22
2023-04-24T08:45:22.093Z,100616.59
2023-04-24T08:48:16.553Z,100619.91
2023-04-24T08:51:05.802Z,100621.97
2023-04-24T08:53:52.264Z,100608.16
2023-04-24T08:56:36.078Z,100612.56
2023-04-24T08:59:23.291Z,100609.38
2023-04-24T09:02:11.584Z,100601.78
2023-04-24T09:04:53.269Z,100601.22
2023-04-24T09:07:37.198Z,100602.06
2023-04-24T09:10:24.230Z,100607.03
2023-04-24T09:13:11.347Z,100602.75
2023-04-24T09:15:51.374Z,100614.84
2023-04-24T09:18:38.233Z,100610.72
2023-04-24T09:21:25.260Z,100595.47
2023-04-24T09:24:15.372Z,100615.13
2023-04-24T09:27:02.285Z,100621.19
2023-04-24T09:29:58.101Z,100637.53
2023-04-24T09:32:45.281Z,100619.91
2023-04-24T09:35:25.917Z,100622.78
2023-04-24T09:38:12.165Z,100612.63
2023-04-24T09:40:59.222Z,100599.06
2023-04-24T09:43:40.717Z,100607.50
2023-04-24T09:46:29.318Z,100603.03
2023-04-24T09:49:36.170Z,100599.63
2023-04-24T09:52:23.204Z,100599.72
2023-04-24T09:55:04.300Z,100593.78
2023-04-24T09:57:59.182Z,100589.03
2023-04-24T10:00:48.197Z,100594.16
2023-04-24T10:03:38.236Z,100586.19
2023-04-24T10:06:20.289Z,100595.84
2023-04-24T10:09:07.241Z,100595.88
2023-04-24T10:11:52.361Z,100591.78
2023-04-24T10:14:39.173Z,100589.53
2023-04-24T10:17:21.582Z,100598.03
2023-04-24T10:20:09.205Z,100584.13
2023-04-24T10:22:51.062Z,100586.50
2023-04-24T10:25:41.171Z,100578.53
2023-04-24T10:28:22.753Z,100571.94
2023-04-24T10:31:09.175Z,100581.06
2023-04-24T10:33:50.311Z,100577.22
2023-04-24T10:36:40.192Z,100579.88
2023-04-24T10:39:35.132Z,100576.13
2023-04-24T10:42:19.130Z,100579.22
2023-04-24T10:45:06.103Z,100572.13
2023-04-24T10:48:08.226Z,100570.16
2023-04-24T10:50:52.304Z,100583.75
2023-04-24T10:53:42.177Z,100574.31
2023-04-24T10:56:24.390Z,100572.44
2023-04-24T10:59:17.101Z,100574.09
2023-04-24T11:02:08.092Z,100578.06
2023-04-24T11:04:52.571Z,100565.22
2023-04-24T11:07:40.107Z,100568.25
2023-04-24T11:10:34.112Z,100565.25
2023-04-24T11:13:14.237Z,100565.56
2023-04-24T11:16:21.149Z,100547.78
2023-04-24T11:19:12.340Z,100570.75
2023-04-24T11:22:08.118Z,100561.94
2023-04-24T11:25:04.112Z,100547.50
2023-04-24T11:27:46.613Z,100540.00
2023-04-24T11:30:35.141Z,100537.03
2023-04-24T11:33:21.772Z,100529.94
2023-04-24T11:36:08.112Z,100540.91
2023-04-24T11:38:55.381Z,100533.41
2023-04-24T11:41:36.069Z,100538.75
2023-04-24T11:44:28.095Z,100533.34
2023-04-24T11:47:08.171Z,100537.38
2023-04-24T11:49:58.238Z,100527.91
2023-04-24T11:52:39.178Z,100538.09
2023-04-24T11:55:26.047Z,100528.81
2023-04-24T11:58:07.635Z,100524.53
2023-04-24T12:01:04.070Z,100519.56
2023-04-24T12:03:53.222Z,100522.66
2023-04-24T12:06:33.495Z,100508.31
2023-04-24T12:09:20.070Z,100506.66
2023-04-24T12:12:07.146Z,100502.72
2023-04-24T12:15:06.038Z,100498.94
2023-04-24T12:17:46.958Z,100498.56
2023-04-24T12:20:45.979Z,100483.81
2023-04-24T12:23:46.064Z,100485.13
2023-04-24T12:26:27.764Z,100484.22
2023-04-24T12:29:15.999Z,100487.63
2023-04-24T12:31:56.497Z,100483.31
2023-04-24T12:34:43.014Z,100474.28
2023-04-24T12:37:23.201Z,100478.75
2023-04-24T12:40:16.023Z,100489.59
2023-04-24T12:43:04.996Z,100478.44
2023-04-24T12:45:54.972Z,100484.16
2023-04-24T12:48:42.300Z,100477.94
2023-04-24T12:51:22.445Z,100464.09
2023-04-24T12:54:09.032Z,100462.09
2023-04-24T12:56:56.013Z,100484.13
2023-04-24T12:59:36.289Z,100465.81
2023-04-24T13:02:26.091Z,100451.63
2023-04-24T13:05:14.114Z,100448.13
2023-04-24T13:07:54.385Z,100448.94
2023-04-24T13:10:41.967Z,100445.75
2023-04-24T13:13:28.929Z,100454.31
2023-04-24T13:16:15.988Z,100441.69
2023-04-24T13:18:56.484Z,100449.75
2023-04-24T13:21:43.992Z,100450.06
2023-04-24T13:24:27.440Z,100439.94
2023-04-24T13:27:14.005Z,100442.28
2023-04-24T13:29:54.321Z,100433.53
2023-04-24T13:32:40.994Z,100439.94
2023-04-24T13:35:21.426Z,100442.22
2023-04-24T13:38:12.168Z,100431.25
2023-04-24T13:40:58.959Z,100429.09
2023-04-24T13:43:39.049Z,100426.66
2023-04-24T13:46:26.010Z,100416.34
2023-04-24T13:49:06.021Z,100422.53
2023-04-24T13:51:53.990Z,100420.84
2023-04-24T13:54:40.905Z,100410.63
2023-04-24T13:57:21.599Z,100411.19
2023-04-24T14:00:09.879Z,100416.84
2023-04-24T14:02:57.005Z,100411.00
2023-04-24T14:05:38.856Z,100405.38
2023-04-24T14:08:25.851Z,100403.47
2023-04-24T14:11:06.040Z,100394.69
2023-04-24T14:13:53.913Z,100402.66
2023-04-24T14:16:34.073Z,100400.81
2023-04-24T14:19:20.916Z,100399.00
2023-04-24T14:22:00.972Z,100392.00
2023-04-24T14:24:47.848Z,100400.75
2023-04-24T14:27:27.971Z,100394.22
2023-04-24T14:30:15.836Z,100385.31
2023-04-24T14:33:03.149Z,100392.72
2023-04-24T14:35:50.328Z,100389.13
2023-04-24T14:38:29.906Z,100386.19
2023-04-24T14:41:17.833Z,100374.84
2023-04-24T14:44:04.891Z,100373.28
2023-04-24T14:46:51.905Z,100378.03
2023-04-24T14:49:31.952Z,100375.97
2023-04-24T14:52:18.838Z,100371.28
2023-04-24T14:54:58.904Z,100380.47
2023-04-24T14:57:45.850Z,100377.47
2023-04-24T15:00:33.894Z,100352.16
2023-04-24T15:03:14.482Z,100354.88
2023-04-24T15:06:01.856Z,100356.81
2023-04-24T15:08:50.535Z,100354.94
2023-04-24T15:11:37.848Z,100369.66
2023-04-24T15:14:25.814Z,100372.41
2023-04-24T15:17:06.097Z,100371.78
2023-04-24T15:19:52.856Z,100367.81
2023-04-24T15:22:32.938Z,100363.09
2023-04-24T15:25:19.765Z,100363.94
2023-04-24T15:28:06.892Z,100355.44
2023-04-24T15:30:47.212Z,100352.31
2023-04-24T15:33:33.735Z,100350.47
2023-04-24T15:36:14.197Z,100344.69
2023-04-24T15:39:02.506Z,100340.28
2023-04-24T15:41:45.311Z,100338.00
2023-04-24T15:44:31.794Z,100333.28
2023-04-24T15:47:14.488Z,100333.00
2023-04-24T15:50:00.740Z,100334.00
2023-04-24T15:52:41.188Z,100329.84
2023-04-24T15:55:27.770Z,100323.09
2023-04-24T15:58:08.509Z,100326.81
2023-04-24T16:00:55.728Z,100321.06
2023-04-24T16:03:42.900Z,100316.13
2023-04-24T16:06:22.974Z,100310.81
2023-04-24T16:09:09.694Z,100306.22
2023-04-24T16:11:49.950Z,100296.91
2023-04-24T16:14:36.760Z,100303.94
2023-04-24T16:17:16.983Z,100302.09
2023-04-24T16:20:03.882Z,100300.06
2023-04-24T16:22:45.062Z,100308.28
2023-04-24T16:25:34.227Z,100305.41
2023-04-24T16:28:15.248Z,100301.22
2023-04-24T16:31:01.769Z,100302.41
2023-04-24T16:33:42.082Z,100297.44
2023-04-24T16:36:28.857Z,100305.19
2023-04-24T16:39:10.187Z,100305.16
2023-04-24T16:41:59.069Z,100296.50
2023-04-24T16:44:39.841Z,100289.19
2023-04-24T16:47:26.687Z,100281.16
2023-04-24T16:50:07.339Z,100290.28
2023-04-24T16:52:53.909Z,100293.84
2023-04-24T16:55:33.903Z,100284.06
2023-04-24T16:58:20.664Z,100287.56
2023-04-24T17:01:07.802Z,100285.94
2023-04-24T17:03:48.370Z,100295.25
2023-04-24T17:06:35.806Z,100297.56
2023-04-24T17:09:17.652Z,100287.75
2023-04-24T17:12:04.826Z,100292.34
2023-04-24T17:14:52.044Z,100292.66
2023-04-24T17:17:38.861Z,100288.13
2023-04-24T17:20:27.026Z,100275.31
2023-04-24T17:23:18.652Z,100286.56
2023-04-24T17:25:59.245Z,100288.84
2023-04-24T17:28:47.786Z,100292.38
2023-04-24T17:31:28.418Z,100284.72
2023-04-24T17:34:16.837Z,100287.25
2023-04-24T17:36:57.529Z,100283.81
2023-04-24T17:39:44.810Z,100295.13
2023-04-24T17:42:25.169Z,100286.16
2023-04-24T17:45:11.657Z,100285.13
2023-04-24T17:47:52.086Z,100289.41
2023-04-24T17:50:38.643Z,100301.16
2023-04-24T17:53:19.490Z,100293.59
2023-04-24T17:56:08.601Z,100292.50
2023-04-24T17:58:49.272Z,100297.38
2023-04-24T18:01:36.612Z,100299.28
2023-04-24T18:04:17.241Z,100302.50
2023-04-24T18:07:04.566Z,100312.97
2023-04-24T18:09:52.570Z,100306.59
2023-04-24T18:12:33.618Z,100301.38
2023-04-24T18:15:20.743Z,100312.84
2023-04-24T18:18:00.625Z,100308.63
2023-04-24T18:20:41.127Z,100303.41
2023-04-24T18:23:27.554Z,100312.28
2023-04-24T18:26:08.503Z,100312.69
2023-04-24T18:28:55.588Z,100312.06
2023-04-24T18:31:35.997Z,100305.94
2023-04-24T18:34:22.561Z,100313.78
2023-04-24T18:37:09.537Z,100303.97
2023-04-24T18:39:56.806Z,100315.28
2023-04-24T18:42:36.524Z,100316.06
2023-04-24T18:45:17.044Z,100316.84
2023-04-24T18:48:03.577Z,100314.84
2023-04-24T18:50:44.012Z,100307.94
2023-04-24T18:53:30.582Z,100312.72
2023-04-24T18:56:11.026Z,100301.84
2023-04-24T18:58:58.557Z,100308.13
2023-04-24T19:01:39.681Z,100304.94
2023-04-24T19:04:28.621Z,100295.97
2023-04-24T19:07:09.067Z,100305.84
2023-04-24T19:09:55.549Z,100300.38
2023-04-24T19:12:42.585Z,100301.94
2023-04-24T19:15:22.670Z,100299.50
2023-04-24T19:18:09.511Z,100298.47
2023-04-24T19:20:49.641Z,100302.94
2023-04-24T19:23:37.477Z,100292.38
2023-04-24T19:26:17.682Z,100309.72
2023-04-24T19:41:24.665Z,100288.72
2023-04-24T19:44:11.707Z,100284.69
2023-04-24T19:46:52.889Z,100284.44
2023-04-24T19:49:39.627Z,100278.03
2023-04-24T19:52:19.851Z,100271.66
2023-04-24T19:55:06.648Z,100273.75
2023-04-24T19:57:46.727Z,100258.25
2023-04-24T20:00:47.636Z,100248.47
2023-04-24T20:03:35.137Z,100262.69
2023-04-24T20:06:15.078Z,100270.91
2023-04-24T20:09:01.629Z,100262.06
2023-04-24T20:11:48.652Z,100257.72
2023-04-24T20:14:35.645Z,100268.41
2023-04-24T20:17:19.090Z,100257.97
2023-04-24T20:20:05.712Z,100263.50
2023-04-24T20:22:46.014Z,100246.94
2023-04-24T20:25:32.613Z,100253.41
2023-04-24T20:28:14.869Z,100252.59
2023-04-24T20:31:01.614Z,100256.34
2023-04-24T20:33:42.132Z,100261.16
2023-04-24T20:36:28.546Z,100247.78
2023-04-24T20:39:22.530Z,100267.84
2023-04-24T20:42:04.541Z,100258.28
2023-04-24T20:44:52.537Z,100243.53
2023-04-24T20:47:32.758Z,100238.06
2023-04-24T20:50:19.628Z,100239.69
2023-04-24T20:52:59.638Z,100242.09
2023-04-24T20:55:46.551Z,100234.63
2023-04-24T20:58:26.661Z,100235.78
2023-04-24T21:01:13.576Z,100235.47
2023-04-24T21:03:53.831Z,100224.63
2023-04-24T21:06:40.665Z,100232.22
2023-04-24T21:09:27.666Z,100227.97
2023-04-24T21:12:08.071Z,100215.97
2023-04-24T21:14:54.490Z,100211.41
2023-04-24T21:17:41.576Z,100213.78
2023-04-24T21:20:28.531Z,100214.66
2023-04-24T21:23:15.742Z,100216.59
2023-04-24T21:25:55.501Z,100215.41
2023-04-24T21:28:36.671Z,100214.69
2023-04-24T21:31:23.561Z,100199.78
2023-04-24T21:34:04.142Z,100217.81
2023-04-24T21:36:50.545Z,100211.72
2023-04-24T21:39:44.461Z,100204.72
2023-04-24T21:42:32.518Z,100203.22
2023-04-24T21:45:12.597Z,100205.63
2023-04-24T21:47:59.664Z,100203.63
2023-04-24T21:50:41.756Z,100197.56
2023-04-24T21:53:28.526Z,100188.94
2023-04-24T21:56:09.234Z,100195.69
2023-04-24T21:58:57.550Z,100186.66
2023-04-24T22:01:37.629Z,100183.22
2023-04-24T22:04:24.782Z,100186.25
2023-04-24T22:07:04.737Z,100183.75
2023-04-24T22:09:51.469Z,100197.63
2023-04-24T22:12:31.604Z,100177.22
2023-04-24T22:15:18.492Z,100164.88
2023-04-24T22:18:05.588Z,100176.81
2023-04-24T22:20:46.692Z,100170.41
2023-04-24T22:23:33.452Z,100167.66
2023-04-24T22:26:13.925Z,100165.50
2023-04-24T22:29:00.489Z,100163.53
2023-04-24T22:31:41.710Z,100158.34
2023-04-24T22:34:28.463Z,100154.91
2023-04-24T22:37:08.823Z,100149.38
2023-04-24T22:39:55.414Z,100149.38
2023-04-24T22:42:42.521Z,100154.78
2023-04-24T22:45:24.389Z,100154.22
2023-04-24T22:48:04.922Z,100143.97
2023-04-24T22:50:51.401Z,100145.94
2023-04-24T22:53:32.077Z,100138.66
2023-04-24T22:56:18.490Z,100137.06
2023-04-24T22:58:59.159Z,100138.00
2023-04-24T23:01:46.543Z,100140.34
2023-04-24T23:04:26.881Z,100121.81
2023-04-24T23:07:13.450Z,100122.91
2023-04-24T23:10:00.447Z,100121.00
2023-04-24T23:12:47.360Z,100120.88
2023-04-24T23:15:34.364Z,100105.75
2023-04-24T23:18:14.539Z,100113.84
2023-04-24T23:21:01.374Z,100108.53
2023-04-24T23:23:48.776Z,100097.44
2023-04-24T23:26:28.980Z,100105.03
2023-04-24T23:29:15.420Z,100095.69
2023-04-24T23:31:56.676Z,100101.47
2023-04-24T23:34:46.375Z,100096.97
2023-04-24T23:37:27.161Z,100104.56
2023-04-24T23:40:14.386Z,100104.47
2023-04-24T23:43:06.365Z,100096.06
2023-04-24T23:45:54.404Z,100092.13
2023-04-24T23:48:34.819Z,100097.41
2023-04-24T23:51:21.431Z,100096.59
2023-04-24T23:54:01.818Z,100089.69
2023-04-24T23:56:48.411Z,100094.75
2023-04-24T23:59:29.256Z,100075.19
